Time;durP1;ratioP1;P1;durP2;ratioP2;P2;SDS_P1;SDS_P2;PMS_P1;PMS_P2;Temp;Humidity;BMP_temperature;BMP_pressure;BME280_temperature;BME280_humidity;BME280_pressure;Samples;Min_cycle;Max_cycle;Signal;HPM_P1;HPM_P2
2024/01/14 00:00:55;;;;;;;7.13;0.60;;;;;;;1.23;62.01;100956.09;4972319;28;20065;-73
2024/01/14 00:03:21;;;;;;;18.25;0.70;;;;;;;1.51;61.51;100965.56;4989184;28;20061;-73
2024/01/14 00:05:46;;;;;;;10.18;0.73;;;;;;;1.47;61.56;100968.13;4976982;28;20105;-71
2024/01/14 00:08:12;;;;;;;6.47;0.68;;;;;;;1.22;61.99;100972.41;4955146;28;20045;-69
2024/01/14 00:10:37;;;;;;;7.65;0.40;;;;;;;1.15;62.68;100970.66;4952645;28;20053;-67
2024/01/14 00:13:03;;;;;;;9.98;0.57;;;;;;;1.28;61.86;100962.09;4959993;28;20038;-66
2024/01/14 00:15:28;;;;;;;11.80;0.88;;;;;;;1.03;62.39;100962.06;4957684;28;20568;-67
2024/01/14 00:17:54;;;;;;;20.83;0.93;;;;;;;1.30;62.04;100957.78;4961885;28;20525;-66
2024/01/14 00:20:19;;;;;;;10.90;0.73;;;;;;;1.48;61.52;100952.69;4965755;28;20223;-67
2024/01/14 00:22:45;;;;;;;9.85;1.60;;;;;;;1.49;61.46;100951.81;4959140;28;20060;-66
2024/01/14 00:25:11;;;;;;;9.25;0.70;;;;;;;1.40;61.50;100938.94;4954927;28;20517;-66
2024/01/14 00:27:37;;;;;;;13.30;1.88;;;;;;;1.17;61.78;100941.50;4961897;28;20860;-66
2024/01/14 00:30:03;;;;;;;15.25;1.55;;;;;;;1.19;62.18;100944.06;4942475;28;20047;-66
2024/01/14 00:32:29;;;;;;;8.05;0.77;;;;;;;1.37;61.53;100941.47;4958227;28;21433;-66
2024/01/14 00:34:54;;;;;;;13.60;1.70;;;;;;;1.34;61.54;100936.34;4960920;28;20446;-66
2024/01/14 00:37:20;;;;;;;14.02;1.10;;;;;;;1.39;60.57;100931.19;4962723;28;20037;-66
2024/01/14 00:39:45;;;;;;;13.80;1.80;;;;;;;1.19;61.26;100928.63;4959255;28;20650;-67
2024/01/14 00:42:11;;;;;;;7.13;0.93;;;;;;;1.30;60.60;100937.19;4958063;28;20057;-63
2024/01/14 00:44:36;;;;;;;10.80;0.52;;;;;;;1.27;60.76;100924.34;4949937;28;20038;-67
2024/01/14 00:47:02;;;;;;;4.55;0.85;;;;;;;1.24;60.45;100920.03;4961857;28;20039;-67
2024/01/14 00:49:28;;;;;;;9.02;0.77;;;;;;;1.17;60.53;100917.44;4953060;28;20133;-65
2024/01/14 00:51:53;;;;;;;16.35;0.88;;;;;;;1.01;61.11;100921.75;4989531;28;20038;-64
2024/01/14 00:54:18;;;;;;;6.50;0.45;;;;;;;0.95;60.76;100920.03;4956376;28;20051;-66
2024/01/14 00:56:44;;;;;;;7.32;0.63;;;;;;;1.13;60.53;100914.03;4954371;28;20114;-65
2024/01/14 00:59:11;;;;;;;9.27;1.10;;;;;;;1.07;60.41;100926.91;4955424;28;20401;-65
2024/01/14 01:01:36;;;;;;;12.07;0.75;;;;;;;0.91;61.11;100918.31;4960951;28;20030;-66
2024/01/14 01:04:01;;;;;;;7.53;0.63;;;;;;;1.01;60.85;100912.31;4948714;28;20033;-65
2024/01/14 01:06:27;;;;;;;14.38;1.33;;;;;;;1.13;60.19;100908.91;4945233;28;20062;-66
2024/01/14 01:08:53;;;;;;;7.88;2.17;;;;;;;0.90;60.60;100904.59;4948293;28;20211;-66
2024/01/14 01:11:18;;;;;;;8.93;1.50;;;;;;;0.87;60.95;100901.16;4914135;28;20776;-67
2024/01/14 01:13:44;;;;;;;15.55;1.65;;;;;;;0.97;60.86;100904.56;4917401;28;20077;-66
2024/01/14 01:16:10;;;;;;;17.55;1.85;;;;;;;0.94;60.33;100899.44;4923002;28;20054;-66
2024/01/14 01:18:35;;;;;;;10.40;1.42;;;;;;;0.74;60.48;100899.44;4924126;28;20038;-67
2024/01/14 01:21:01;;;;;;;13.25;1.70;;;;;;;0.63;59.99;100907.13;4939719;28;20038;-67
2024/01/14 01:23:26;;;;;;;12.63;0.93;;;;;;;0.78;58.88;100901.16;4955138;28;20824;-66
2024/01/14 01:25:52;;;;;;;8.65;1.42;;;;;;;0.82;57.48;100890.88;4959068;28;20571;-67
2024/01/14 01:28:17;;;;;;;13.85;1.35;;;;;;;1.00;57.00;100886.59;4983944;28;20137;-66
2024/01/14 01:30:43;;;;;;;9.60;0.63;;;;;;;0.84;57.66;100896.03;4957490;28;20049;-68
2024/01/14 01:33:08;;;;;;;9.27;1.10;;;;;;;0.86;57.03;100902.88;4955024;28;20054;-65
2024/01/14 01:35:34;;;;;;;6.03;0.68;;;;;;;1.32;56.37;100910.56;4935311;28;20077;-67
2024/01/14 01:37:59;;;;;;;4.32;0.45;;;;;;;1.10;56.91;100917.47;4961141;28;20042;-67
2024/01/14 01:40:25;;;;;;;22.92;0.73;;;;;;;1.44;56.41;100911.44;4950800;28;20130;-65
2024/01/14 01:42:51;;;;;;;16.58;1.20;;;;;;;1.07;57.65;100911.47;4961000;28;20041;-65
2024/01/14 01:45:17;;;;;;;16.75;1.88;;;;;;;0.65;58.48;100908.84;4955496;28;20047;-67
2024/01/14 01:47:43;;;;;;;12.65;1.33;;;;;;;0.99;57.81;100910.59;4963640;28;20044;-65
2024/01/14 01:50:09;;;;;;;19.85;1.58;;;;;;;1.01;57.28;100904.56;4967154;28;20108;-66
2024/01/14 01:52:36;;;;;;;13.70;0.55;;;;;;;0.86;57.83;100899.47;4952217;28;20085;-73
2024/01/14 01:55:04;;;;;;;8.90;0.77;;;;;;;0.64;58.22;100891.69;4958754;28;20978;-72
2024/01/14 01:57:31;;;;;;;16.15;1.27;;;;;;;0.80;57.36;100896.88;4970455;28;20402;-74
2024/01/14 01:59:57;;;;;;;16.98;1.27;;;;;;;0.58;58.10;100901.97;4944021;28;20031;-73
2024/01/14 02:02:23;;;;;;;17.40;1.52;;;;;;;0.73;57.28;100901.16;4984169;28;20057;-73
2024/01/14 02:04:49;;;;;;;12.70;1.15;;;;;;;0.81;57.15;100899.41;4973699;28;20901;-72
2024/01/14 02:07:15;;;;;;;10.90;1.40;;;;;;;0.65;57.13;100890.84;4959062;28;20035;-72
2024/01/14 02:09:41;;;;;;;19.95;0.98;;;;;;;0.94;56.68;100894.31;4954836;28;20129;-71
2024/01/14 02:12:06;;;;;;;18.20;1.10;;;;;;;0.73;57.07;100902.88;4960265;28;20690;-72
2024/01/14 02:14:33;;;;;;;6.90;0.75;;;;;;;0.45;58.21;100892.50;4953171;28;20093;-67
2024/01/14 02:16:58;;;;;;;13.60;1.35;;;;;;;0.74;57.95;100899.44;4957860;28;20031;-66
2024/01/14 02:19:24;;;;;;;10.88;0.70;;;;;;;0.44;58.92;100890.81;4948734;28;20401;-67
2024/01/14 02:22:24;;;;;;;9.10;1.17;;;;;;;0.63;58.30;100891.69;4923791;28;20046;-66
2024/01/14 02:24:51;;;;;;;12.00;0.57;;;;;;;-0.10;59.24;100894.88;4928494;28;20053;-65
2024/01/14 02:27:17;;;;;;;12.63;0.47;;;;;;;0.49;58.15;100896.81;4922634;28;20225;-65
2024/01/14 02:29:44;;;;;;;6.40;0.47;;;;;;;0.65;57.18;100888.25;4924906;28;20054;-64
2024/01/14 02:32:09;;;;;;;6.32;0.95;;;;;;;0.64;57.54;100886.56;4872959;28;1106833;-63
2024/01/14 02:34:35;;;;;;;8.15;1.00;;;;;;;0.52;57.39;100886.53;4894614;28;20225;-63
2024/01/14 02:37:02;;;;;;;9.20;1.00;;;;;;;0.69;56.53;100889.13;4910546;28;20104;-64
2024/01/14 02:39:28;;;;;;;5.55;0.60;;;;;;;0.38;57.07;100878.78;4893763;28;20703;-67
2024/01/14 02:41:54;;;;;;;11.20;0.95;;;;;;;0.39;57.06;100879.63;4925943;28;20332;-64
2024/01/14 02:44:19;;;;;;;2.95;0.40;;;;;;;0.47;56.50;100877.94;4977004;28;20031;-63
2024/01/14 02:46:45;;;;;;;7.60;0.55;;;;;;;0.38;56.75;100873.63;4954698;28;20057;-65
2024/01/14 02:49:10;;;;;;;4.93;0.43;;;;;;;0.37;56.59;100869.38;4965177;28;20038;-67
2024/01/14 02:51:36;;;;;;;2.72;0.55;;;;;;;0.79;55.59;100865.16;4961445;28;20065;-66
2024/01/14 02:54:02;;;;;;;6.50;0.82;;;;;;;0.66;56.12;100861.69;4962391;28;20042;-67
2024/01/14 02:56:28;;;;;;;14.38;0.88;;;;;;;0.97;55.30;100860.81;4951672;28;20107;-65
2024/01/14 02:58:54;;;;;;;6.15;0.45;;;;;;;0.76;56.52;100859.13;4943130;28;20044;-65
2024/01/14 03:01:19;;;;;;;5.82;0.57;;;;;;;0.66;56.38;100863.41;4964535;28;20393;-66
2024/01/14 03:03:45;;;;;;;5.88;0.75;;;;;;;0.86;55.63;100860.84;4954735;28;21581;-64
2024/01/14 03:06:10;;;;;;;4.32;0.15;;;;;;;0.51;54.86;100859.09;4957261;28;20572;-65
2024/01/14 03:08:36;;;;;;;6.15;0.13;;;;;;;0.32;54.98;100853.06;4955630;28;20041;-67
2024/01/14 03:11:02;;;;;;;3.80;0.35;;;;;;;0.62;54.51;100844.53;4953846;28;20089;-64
2024/01/14 03:13:28;;;;;;;8.02;0.22;;;;;;;0.51;54.71;100853.97;4952831;28;20062;-64
2024/01/14 03:15:54;;;;;;;5.32;0.55;;;;;;;0.69;54.70;100853.13;4956495;28;20042;-68
2024/01/14 03:18:19;;;;;;;3.45;0.20;;;;;;;0.06;56.77;100845.28;4958309;28;20069;-66
2024/01/14 03:20:45;;;;;;;2.20;0.10;;;;;;;0.24;56.91;100845.34;4950434;28;20142;-66
2024/01/14 03:23:10;;;;;;;8.50;0.35;;;;;;;0.28;56.71;100841.06;4949882;28;20456;-68
2024/01/14 03:25:35;;;;;;;5.82;0.43;;;;;;;0.54;56.54;100843.66;4947902;28;20073;-68
2024/01/14 03:28:01;;;;;;;10.15;0.30;;;;;;;0.20;57.24;100843.59;4965985;28;20045;-67
2024/01/14 03:30:26;;;;;;;12.80;0.45;;;;;;;0.33;57.30;100843.66;4961397;28;20144;-67
2024/01/14 03:32:52;;;;;;;9.63;0.43;;;;;;;0.13;57.97;100841.88;4957413;28;20046;-67
2024/01/14 03:35:17;;;;;;;4.72;0.63;;;;;;;0.15;58.09;100855.59;4954835;28;20095;-68
2024/01/14 03:37:43;;;;;;;8.25;0.47;;;;;;;0.22;57.84;100847.03;4963357;28;20217;-68
2024/01/14 03:40:09;;;;;;;5.68;0.30;;;;;;;0.25;57.82;100841.91;4966024;28;20141;-69
2024/01/14 03:42:36;;;;;;;9.52;0.28;;;;;;;0.59;57.02;100854.84;4950320;28;20334;-69
2024/01/14 03:45:03;;;;;;;8.35;0.50;;;;;;;0.34;57.90;100848.78;4968242;28;20043;-69
2024/01/14 03:47:28;;;;;;;5.60;0.77;;;;;;;0.37;57.24;100845.38;4964038;28;20042;-66
2024/01/14 03:49:54;;;;;;;6.63;0.45;;;;;;;0.04;58.19;100842.72;4954036;28;20438;-67
2024/01/14 03:52:19;;;;;;;3.65;0.13;;;;;;;0.23;58.02;100848.78;4958667;28;20133;-68
2024/01/14 03:54:45;;;;;;;4.40;0.30;;;;;;;0.42;57.38;100851.38;4950638;28;20065;-68
2024/01/14 03:57:10;;;;;;;5.72;0.25;;;;;;;0.49;57.21;100845.38;4961237;28;20393;-67
2024/01/14 03:59:37;;;;;;;3.53;0.35;;;;;;;0.63;57.17;100853.97;4967414;28;20047;-66
2024/01/14 04:02:02;;;;;;;7.55;0.50;;;;;;;0.53;57.48;100856.53;4961061;28;20062;-69
2024/01/14 04:04:28;;;;;;;1.63;0.63;;;;;;;0.14;59.18;100843.59;4956833;28;20098;-69
2024/01/14 04:06:54;;;;;;;2.25;0.17;;;;;;;0.04;59.01;100841.84;4963590;28;20034;-66
2024/01/14 04:09:19;;;;;;;3.85;0.32;;;;;;;0.16;59.15;100841.88;4966454;28;20053;-68
2024/01/14 04:11:45;;;;;;;3.47;0.47;;;;;;;0.22;58.99;100841.91;4918330;28;20118;-66
2024/01/14 04:14:12;;;;;;;11.07;0.73;;;;;;;0.19;58.82;100831.63;4958653;28;20533;-66
2024/01/14 04:16:41;;;;;;;7.60;0.70;;;;;;;0.22;58.48;100835.91;4922155;28;20141;-66
2024/01/14 04:19:07;;;;;;;4.72;0.43;;;;;;;0.27;58.03;100829.91;4925819;28;20034;-68
2024/01/14 04:21:34;;;;;;;8.13;0.40;;;;;;;0.09;58.55;100819.59;4905742;28;20034;-68
2024/01/14 04:23:59;;;;;;;3.90;0.35;;;;;;;-0.20;59.70;100815.22;4951522;28;20030;-67
2024/01/14 04:26:25;;;;;;;5.43;0.50;;;;;;;-0.14;59.96;100825.53;4948095;28;20615;-67
2024/01/14 04:28:52;;;;;;;4.32;0.28;;;;;;;0.07;59.39;100829.84;4906078;28;20179;-67
2024/01/14 04:31:18;;;;;;;9.57;0.63;;;;;;;0.18;58.92;100827.31;4933570;28;20607;-66
2024/01/14 04:33:45;;;;;;;4.43;0.22;;;;;;;0.28;59.19;100826.50;4925408;28;20089;-67
2024/01/14 04:36:11;;;;;;;7.07;0.50;;;;;;;0.15;59.21;100840.19;4940898;28;20046;-66
2024/01/14 04:38:36;;;;;;;6.40;0.20;;;;;;;0.06;59.25;100832.44;4911530;28;20081;-68
2024/01/14 04:41:02;;;;;;;6.22;0.77;;;;;;;0.25;58.49;100821.31;4960043;28;20595;-68
2024/01/14 04:43:28;;;;;;;14.43;0.85;;;;;;;0.17;58.25;100819.63;4959632;28;20034;-67
2024/01/14 04:45:53;;;;;;;3.38;1.05;;;;;;;-0.06;58.61;100816.97;4954875;28;20497;-68
2024/01/14 04:48:19;;;;;;;1.83;0.57;;;;;;;0.14;58.11;100812.75;4958126;28;20039;-68
2024/01/14 04:50:45;;;;;;;4.20;0.20;;;;;;;0.22;57.54;100816.19;4940739;28;20047;-68
2024/01/14 04:53:11;;;;;;;7.03;0.30;;;;;;;0.41;57.09;100816.22;4899705;28;20157;-65
2024/01/14 04:55:37;;;;;;;1.33;0.30;;;;;;;0.38;57.02;100817.06;4897016;28;20061;-64
2024/01/14 04:58:04;;;;;;;6.53;0.20;;;;;;;0.36;56.66;100812.78;4930011;28;20241;-71
2024/01/14 05:00:30;;;;;;;2.78;0.52;;;;;;;0.21;57.04;100811.91;4902527;28;20057;-67
2024/01/14 05:02:56;;;;;;;6.03;0.30;;;;;;;0.25;57.28;100805.06;4923940;28;20035;-69
2024/01/14 05:05:22;;;;;;;3.92;0.30;;;;;;;0.33;57.18;100807.66;4961356;28;20430;-69
2024/01/14 05:07:47;;;;;;;3.40;0.68;;;;;;;0.30;57.33;100807.63;4968724;28;20130;-69
2024/01/14 05:10:13;;;;;;;1.40;0.30;;;;;;;0.06;58.42;100809.31;4960881;28;20050;-69
2024/01/14 05:12:39;;;;;;;7.38;0.30;;;;;;;0.09;57.78;100800.75;4976724;28;20034;-69
2024/01/14 05:15:05;;;;;;;6.20;0.52;;;;;;;0.14;58.15;100789.59;4948535;28;20117;-69
2024/01/14 05:17:30;;;;;;;7.88;0.57;;;;;;;0.48;56.98;100787.09;4961864;28;20037;-71
2024/01/14 05:19:55;;;;;;;11.90;1.33;;;;;;;0.48;56.86;100787.09;4955989;28;20046;-69
2024/01/14 05:22:21;;;;;;;6.57;0.75;;;;;;;0.44;57.25;100786.22;4962281;28;20038;-69
2024/01/14 05:24:46;;;;;;;1.38;0.10;;;;;;;0.54;56.81;100781.94;4955380;28;20055;-69
2024/01/14 05:27:13;;;;;;;7.15;0.38;;;;;;;0.45;56.97;100776.78;4963242;28;20042;-70
2024/01/14 05:29:44;;;;;;;7.18;0.45;;;;;;;0.39;56.31;100772.53;4958299;28;20113;-69
2024/01/14 05:32:13;;;;;;;3.85;0.20;;;;;;;0.08;57.53;100769.06;4975942;28;20116;-69
2024/01/14 05:34:39;;;;;;;6.93;0.30;;;;;;;0.27;57.21;100772.50;4960222;28;20105;-69
2024/01/14 05:37:05;;;;;;;5.00;0.40;;;;;;;0.24;56.34;100773.34;4971496;28;20681;-68
2024/01/14 05:39:32;;;;;;;3.60;0.20;;;;;;;0.11;56.43;100766.47;4956588;28;20061;-68
2024/01/14 05:41:58;;;;;;;5.97;0.70;;;;;;;0.08;56.46;100766.50;4956473;28;20030;-68
2024/01/14 05:44:24;;;;;;;5.55;0.10;;;;;;;-0.13;57.54;100768.13;4976161;28;20042;-72
2024/01/14 05:46:50;;;;;;;5.30;0.40;;;;;;;-0.33;58.43;100764.66;4953124;28;20493;-65
2024/01/14 05:49:15;;;;;;;2.72;0.10;;;;;;;-0.30;58.56;100767.25;4957148;28;20049;-69
2024/01/14 05:51:41;;;;;;;4.75;0.25;;;;;;;0.06;58.03;100760.47;4960872;28;20058;-67
2024/01/14 05:54:06;;;;;;;17.58;0.38;;;;;;;-0.13;58.60;100754.44;4982827;28;20671;-65
2024/01/14 05:56:32;;;;;;;14.77;0.47;;;;;;;-0.07;58.43;100758.75;4959268;28;20034;-67
2024/01/14 05:59:00;;;;;;;4.55;0.10;;;;;;;-0.09;57.93;100750.16;4969305;28;20027;-71
2024/01/14 06:01:27;;;;;;;9.10;0.55;;;;;;;-0.07;57.99;100748.47;4988283;28;20505;-70
2024/01/14 06:03:52;;;;;;;2.00;0.10;;;;;;;-0.19;57.71;100745.03;4956734;28;20038;-74
2024/01/14 06:06:18;;;;;;;2.10;0.20;;;;;;;-0.01;57.18;100745.91;4956981;28;20023;-68
2024/01/14 06:08:44;;;;;;;8.48;0.28;;;;;;;-0.08;57.37;100741.59;4961812;28;20023;-66
2024/01/14 06:11:10;;;;;;;4.20;0.28;;;;;;;-0.15;57.91;100740.72;4969094;28;20094;-65
2024/01/14 06:13:36;;;;;;;2.35;0.28;;;;;;;-0.13;57.73;100746.72;4991088;28;20093;-67
2024/01/14 06:16:01;;;;;;;2.28;0.30;;;;;;;-0.16;56.93;100747.59;4953018;28;20965;-67
2024/01/14 06:18:28;;;;;;;3.03;0.10;;;;;;;-0.30;57.48;100739.00;4965983;28;20023;-67
2024/01/14 06:20:55;;;;;;;1.88;0.10;;;;;;;-0.28;57.69;100742.44;4953087;28;20043;-67
2024/01/14 06:23:21;;;;;;;7.68;0.65;;;;;;;-0.25;57.20;100737.28;4960344;28;20481;-65
2024/01/14 06:25:47;;;;;;;1.85;0.20;;;;;;;-0.35;57.59;100732.97;4959756;28;20043;-65
2024/01/14 06:28:12;;;;;;;1.17;0.20;;;;;;;-0.38;57.76;100735.53;4952563;28;20030;-68
2024/01/14 06:30:38;;;;;;;2.17;0.10;;;;;;;-0.36;57.78;100733.84;4960593;28;20042;-68
2024/01/14 06:33:04;;;;;;;7.55;0.17;;;;;;;-0.41;57.36;100730.41;4950500;28;20031;-68
2024/01/14 06:35:29;;;;;;;1.63;0.10;;;;;;;-0.54;58.12;100734.63;4962028;28;20237;-68
2024/01/14 06:37:55;;;;;;;2.75;0.25;;;;;;;-0.49;57.63;100720.09;4967731;28;20665;-68
2024/01/14 06:40:20;;;;;;;4.35;0.20;;;;;;;-0.62;58.23;100718.34;4959274;28;20382;-68
2024/01/14 06:42:46;;;;;;;5.15;0.45;;;;;;;-0.68;58.15;100715.72;4958556;28;20557;-70
2024/01/14 06:45:12;;;;;;;7.05;0.28;;;;;;;-0.85;58.30;100715.69;4960729;28;20273;-68
2024/01/14 06:47:38;;;;;;;7.68;0.25;;;;;;;-0.69;58.51;100709.75;4973375;28;20035;-66
2024/01/14 06:50:04;;;;;;;8.23;1.17;;;;;;;-0.84;58.82;100704.53;4950045;28;20042;-67
2024/01/14 06:52:30;;;;;;;4.47;0.40;;;;;;;-0.90;59.98;100707.97;4960650;28;20049;-66
2024/01/14 06:54:55;;;;;;;1.95;0.20;;;;;;;-1.05;60.21;100716.44;4953331;28;20039;-69
2024/01/14 06:57:21;;;;;;;3.97;0.28;;;;;;;-0.80;60.30;100712.25;4974226;28;20613;-66
2024/01/14 06:59:46;;;;;;;3.03;0.20;;;;;;;-0.83;60.54;100716.53;4955665;28;20070;-67
2024/01/14 07:02:12;;;;;;;3.15;0.32;;;;;;;-0.61;59.82;100713.22;4957036;28;21010;-68
2024/01/14 07:04:38;;;;;;;8.23;0.80;;;;;;;-0.37;59.39;100717.56;4976298;28;20501;-65
2024/01/14 07:07:04;;;;;;;5.05;0.10;;;;;;;-0.15;59.29;100728.75;4958610;28;20030;-68
2024/01/14 07:09:29;;;;;;;2.08;0.20;;;;;;;-0.38;60.18;100730.41;4959405;28;20054;-63
2024/01/14 07:11:55;;;;;;;1.00;0.50;;;;;;;-0.19;59.32;100734.75;4958598;28;20058;-64
2024/01/14 07:14:22;;;;;;;2.10;0.08;;;;;;;-0.14;59.53;100733.03;4962167;28;20542;-64
2024/01/14 07:16:48;;;;;;;4.10;0.10;;;;;;;0.05;59.13;100720.22;4961444;28;20041;-69
2024/01/14 07:19:15;;;;;;;2.75;0.28;;;;;;;-0.15;59.66;100715.91;4963786;28;20492;-72
2024/01/14 07:21:40;;;;;;;5.97;0.10;;;;;;;-0.41;60.54;100715.84;4994692;28;20047;-72
2024/01/14 07:24:06;;;;;;;3.08;0.25;;;;;;;-0.16;59.60;100716.75;4973103;28;20610;-72
2024/01/14 07:26:32;;;;;;;2.92;0.20;;;;;;;-0.22;59.91;100710.75;4962440;28;20030;-70
2024/01/14 07:28:57;;;;;;;11.57;0.50;;;;;;;-0.49;60.41;100708.97;4957091;28;20396;-72
2024/01/14 07:31:30;;;;;;;3.78;0.13;;;;;;;-0.51;60.15;100708.94;4954331;28;20042;-72
2024/01/14 07:33:57;;;;;;;2.75;0.10;;;;;;;-0.54;60.35;100705.53;4952468;28;20042;-70
2024/01/14 07:36:23;;;;;;;7.25;0.30;;;;;;;-0.52;59.99;100708.97;4960419;28;20089;-70
2024/01/14 07:38:50;;;;;;;2.25;0.30;;;;;;;-0.51;59.90;100708.09;4968818;28;20038;-72
2024/01/14 07:41:16;;;;;;;2.22;0.22;;;;;;;-0.62;60.20;100711.47;4960951;28;20493;-70
2024/01/14 07:43:42;;;;;;;4.78;0.90;;;;;;;-0.87;60.85;100714.81;4977237;28;20034;-64
2024/01/14 07:46:08;;;;;;;6.63;0.10;;;;;;;-0.73;60.34;100713.16;4947698;28;20080;-63
2024/01/14 07:48:34;;;;;;;12.80;0.28;;;;;;;-0.72;60.83;100707.19;4958826;28;20038;-67
2024/01/14 07:51:01;;;;;;;4.88;0.57;;;;;;;-0.58;60.72;100702.94;4963130;28;20045;-66
2024/01/14 07:53:26;;;;;;;7.68;0.38;;;;;;;-0.47;60.39;100704.69;4955571;28;20053;-63
2024/01/14 07:55:52;;;;;;;3.95;0.10;;;;;;;-0.46;61.25;100703.84;4969754;28;20046;-67
2024/01/14 07:58:18;;;;;;;4.55;0.22;;;;;;;-0.28;60.64;100703.91;4955035;28;20038;-65
2024/01/14 08:00:44;;;;;;;0.93;0.20;;;;;;;-0.27;60.45;100703.03;4963127;28;20046;-72
2024/01/14 08:03:10;;;;;;;2.40;0.30;;;;;;;-0.31;60.32;100710.72;4955242;28;20173;-71
2024/01/14 08:05:40;;;;;;;4.40;0.20;;;;;;;-0.30;60.28;100705.59;4961978;28;20034;-72
2024/01/14 08:08:06;;;;;;;6.68;0.25;;;;;;;-0.07;59.74;100709.94;4954477;28;20054;-68
2024/01/14 08:10:32;;;;;;;2.50;0.22;;;;;;;-0.15;59.99;100705.66;4964349;28;20068;-71
2024/01/14 08:12:58;;;;;;;9.43;0.43;;;;;;;0.04;60.02;100708.22;4961037;28;20038;-62
2024/01/14 08:15:23;;;;;;;6.32;0.85;;;;;;;-0.01;60.00;100700.50;4953660;28;20535;-66
2024/01/14 08:17:49;;;;;;;4.00;0.22;;;;;;;0.21;59.42;100696.25;4958165;28;20042;-69
2024/01/14 08:20:14;;;;;;;3.17;0.20;;;;;;;0.37;58.76;100704.81;4947528;28;20101;-75
2024/01/14 08:22:40;;;;;;;3.33;0.20;;;;;;;0.51;58.81;100684.22;4950732;28;20561;-75
2024/01/14 08:25:07;;;;;;;1.75;0.10;;;;;;;0.15;59.10;100683.38;4954535;28;20757;-75
2024/01/14 08:27:33;;;;;;;0.25;0.08;;;;;;;0.40;58.76;100685.94;4978147;28;20030;-76
2024/01/14 08:29:59;;;;;;;1.15;0.10;;;;;;;0.37;58.77;100680.81;4954717;28;20038;-67
2024/01/14 08:32:25;;;;;;;2.63;0.25;;;;;;;0.35;58.45;100670.53;4953314;28;20046;-66
2024/01/14 08:34:51;;;;;;;7.80;0.43;;;;;;;0.28;58.53;100677.38;4956180;28;20050;-68
2024/01/14 08:37:17;;;;;;;1.48;0.20;;;;;;;0.26;58.65;100676.53;4969487;28;20488;-69
2024/01/14 08:39:42;;;;;;;8.23;0.25;;;;;;;-0.10;59.71;100673.94;4953074;28;20046;-70
2024/01/14 08:42:08;;;;;;;4.13;0.10;;;;;;;0.05;59.35;100676.53;4956855;28;20034;-69
2024/01/14 08:44:34;;;;;;;3.72;0.40;;;;;;;0.23;59.24;100676.53;4958879;28;20046;-69
2024/01/14 08:47:00;;;;;;;12.50;0.60;;;;;;;-0.03;59.22;100675.69;4962327;28;20098;-69
2024/01/14 08:49:29;;;;;;;5.30;0.93;;;;;;;0.23;58.48;100673.97;4952352;28;20701;-70
2024/01/14 08:51:56;;;;;;;5.45;0.70;;;;;;;0.32;58.48;100672.22;4958776;28;20110;-69
2024/01/14 08:54:22;;;;;;;6.57;0.20;;;;;;;0.17;58.32;100666.25;4967651;28;20046;-69
2024/01/14 08:56:48;;;;;;;5.05;0.20;;;;;;;0.20;59.23;100673.94;4967162;28;20058;-66
2024/01/14 08:59:14;;;;;;;2.10;0.55;;;;;;;0.25;59.01;100672.22;4953261;28;20101;-67
2024/01/14 09:01:40;;;;;;;1.60;0.20;;;;;;;0.90;58.42;100666.97;4978167;28;20613;-72
2024/01/14 09:04:05;;;;;;;1.40;0.25;;;;;;;1.30;56.76;100671.97;4975391;28;20045;-73
2024/01/14 09:06:31;;;;;;;9.27;1.02;;;;;;;1.17;56.16;100667.72;4948338;28;20093;-71
2024/01/14 09:08:57;;;;;;;6.60;0.40;;;;;;;0.43;57.00;100673.06;4921752;28;20043;-65
2024/01/14 09:11:23;;;;;;;8.10;0.68;;;;;;;0.28;57.99;100672.25;4917784;28;20413;-65
2024/01/14 09:13:48;;;;;;;4.38;0.30;;;;;;;-0.08;58.64;100667.97;4906600;28;20050;-66
2024/01/14 09:16:14;;;;;;;9.23;0.63;;;;;;;0.33;58.01;100669.66;4937826;28;20453;-65
2024/01/14 09:18:40;;;;;;;5.57;0.45;;;;;;;0.30;58.48;100668.81;4937124;28;20034;-65
2024/01/14 09:21:06;;;;;;;4.15;0.15;;;;;;;0.90;58.17;100660.13;4943962;28;20050;-67
2024/01/14 09:23:32;;;;;;;6.00;0.40;;;;;;;0.40;58.08;100661.09;4959816;28;20118;-67
2024/01/14 09:26:01;;;;;;;13.07;1.25;;;;;;;0.41;58.08;100659.38;4958618;28;20102;-67
2024/01/14 09:28:26;;;;;;;10.15;0.63;;;;;;;0.75;57.84;100656.72;4939100;28;20718;-68
2024/01/14 09:30:53;;;;;;;4.28;0.57;;;;;;;0.93;57.23;100654.13;4943513;28;20043;-68
2024/01/14 09:33:19;;;;;;;1.35;0.10;;;;;;;1.25;56.58;100647.97;4938534;28;20041;-68
2024/01/14 09:35:44;;;;;;;11.20;1.08;;;;;;;1.39;56.69;100642.72;4940118;28;20043;-67
2024/01/14 09:38:11;;;;;;;4.47;0.43;;;;;;;1.29;56.77;100650.50;4935106;28;20071;-67
2024/01/14 09:40:37;;;;;;;8.50;0.98;;;;;;;1.22;56.94;100645.41;4954291;28;20065;-67
2024/01/14 09:43:06;;;;;;;7.55;0.50;;;;;;;0.72;57.41;100646.44;4957616;28;20497;-67
2024/01/14 09:45:34;;;;;;;9.45;0.63;;;;;;;0.82;57.51;100638.69;4948116;28;20120;-67
2024/01/14 09:48:00;;;;;;;2.95;0.30;;;;;;;1.40;57.62;100639.31;4957163;28;20030;-68
2024/01/14 09:50:26;;;;;;;5.88;0.77;;;;;;;1.35;57.29;100639.34;4949638;28;20128;-68
2024/01/14 09:52:52;;;;;;;5.80;0.30;;;;;;;1.42;57.08;100638.47;4960085;28;20472;-67
2024/01/14 09:55:18;;;;;;;4.75;0.50;;;;;;;1.57;56.52;100629.78;4941318;28;20074;-67
2024/01/14 09:57:48;;;;;;;5.07;0.40;;;;;;;1.43;57.14;100637.59;4957291;28;20030;-68
2024/01/14 10:00:14;;;;;;;3.95;0.40;;;;;;;1.80;56.38;100636.50;4949905;28;20038;-67
2024/01/14 10:02:41;;;;;;;13.30;0.65;;;;;;;2.32;55.77;100626.59;4959404;28;20088;-67
2024/01/14 10:05:07;;;;;;;2.95;0.22;;;;;;;2.13;55.04;100627.63;4956248;28;20046;-67
2024/01/14 10:07:33;;;;;;;2.83;0.60;;;;;;;2.46;54.75;100623.03;4948436;28;21346;-66
2024/01/14 10:09:59;;;;;;;1.95;0.40;;;;;;;2.89;53.80;100617.38;4956034;28;20048;-66
2024/01/14 10:12:26;;;;;;;2.85;0.15;;;;;;;2.89;52.64;100619.94;4948118;28;20038;-65
2024/01/14 10:14:58;;;;;;;4.68;1.25;;;;;;;3.03;52.98;100615.50;4953157;28;20072;-67
2024/01/14 10:17:25;;;;;;;10.38;0.32;;;;;;;2.63;53.90;100615.97;4945822;28;20101;-64
2024/01/14 10:19:54;;;;;;;2.65;0.40;;;;;;;3.37;51.18;100615.91;4951791;28;20049;-65
2024/01/14 10:22:23;;;;;;;3.30;0.30;;;;;;;3.75;51.41;100616.22;4947880;28;20030;-66
2024/01/14 10:24:51;;;;;;;2.42;0.40;;;;;;;4.49;51.40;100604.59;4952507;28;20557;-65
2024/01/14 10:27:17;;;;;;;1.85;0.22;;;;;;;5.00;49.65;100596.72;4945911;28;20149;-65
2024/01/14 10:29:42;;;;;;;2.28;0.22;;;;;;;4.45;49.34;100600.34;4958098;28;20455;-65
2024/01/14 10:32:08;;;;;;;8.13;0.90;;;;;;;3.57;51.20;100589.78;4952107;28;20069;-63
2024/01/14 10:34:34;;;;;;;4.10;0.20;;;;;;;3.18;51.18;100578.28;4948509;28;20133;-65
2024/01/14 10:37:00;;;;;;;3.90;0.50;;;;;;;3.58;51.38;100575.13;4969977;28;20504;-64
2024/01/14 10:39:30;;;;;;;3.28;0.47;;;;;;;3.53;52.38;100580.34;4950948;28;20048;-64
2024/01/14 10:41:56;;;;;;;2.58;0.25;;;;;;;3.73;50.45;100571.44;4958202;28;20113;-63
2024/01/14 10:44:22;;;;;;;2.60;0.20;;;;;;;3.85;51.17;100566.09;4904040;28;20370;-64
2024/01/14 10:46:51;;;;;;;2.90;0.38;;;;;;;3.43;51.53;100565.88;4900696;28;20680;-65
2024/01/14 10:49:24;;;;;;;3.95;0.25;;;;;;;4.41;49.79;100553.84;4888394;28;20972;-64
2024/01/14 10:51:58;;;;;;;0.75;0.20;;;;;;;3.70;51.66;100558.59;4891601;28;20046;-65
2024/01/14 10:54:43;;;;;;;8.07;0.30;;;;;;;3.01;52.67;100552.69;4881517;28;20043;-66
2024/01/14 10:57:27;;;;;;;2.40;0.30;;;;;;;3.25;52.35;100546.31;4955576;28;20390;-67
2024/01/14 11:00:00;;;;;;;1.20;0.47;;;;;;;2.71;53.42;100541.91;4954804;28;20854;-68
2024/01/14 11:02:28;;;;;;;3.15;0.47;;;;;;;3.32;52.46;100539.38;4953136;28;20066;-65
2024/01/14 11:04:54;;;;;;;2.22;0.00;;;;;;;3.65;51.43;100526.75;4956508;28;20947;-67
2024/01/14 11:07:22;;;;;;;3.47;0.17;;;;;;;2.74;53.25;100518.63;4949476;28;20046;-65
2024/01/14 11:09:49;;;;;;;1.65;0.20;;;;;;;3.09;53.66;100527.63;4970954;28;20106;-64
2024/01/14 11:12:20;;;;;;;3.35;0.73;;;;;;;2.50;54.29;100512.03;4957124;28;20034;-67
2024/01/14 11:15:04;;;;;;;3.83;1.20;;;;;;;2.60;54.07;100509.34;4957017;28;20109;-66
2024/01/14 11:17:48;;;;;;;3.05;0.45;;;;;;;2.71;52.78;100500.59;4951306;28;20634;-67
2024/01/14 11:20:16;;;;;;;4.88;0.10;;;;;;;2.87;52.50;100505.56;4954175;28;20046;-68
2024/01/14 11:22:42;;;;;;;2.42;0.50;;;;;;;2.87;51.58;100495.25;4951266;28;20590;-66
2024/01/14 11:25:17;;;;;;;2.03;0.10;;;;;;;3.14;50.56;100494.81;4953945;28;20050;-66